Time;durP1;ratioP1;P1;durP2;ratioP2;P2;SDS_P1;SDS_P2;PMS_P1;PMS_P2;Temp;Humidity;BMP_temperature;BMP_pressure;BME280_temperature;BME280_humidity;BME280_pressure;Samples;Min_cycle;Max_cycle;Signal;HPM_P1;HPM_P2
2022/01/04 00:00:48;;;;;;;4.15;1.55;;;8.10;99.90;;;;;;5024628;28;20049;-66
2022/01/04 00:03:14;;;;;;;2.92;1.60;;;8.10;99.90;;;;;;5029737;28;20067;-67
2022/01/04 00:05:40;;;;;;;5.43;1.73;;;8.00;99.90;;;;;;5024211;28;20025;-67
2022/01/04 00:08:09;;;;;;;3.17;1.52;;;8.00;99.90;;;;;;5022804;28;20034;-67
2022/01/04 00:10:35;;;;;;;15.70;1.98;;;8.00;99.90;;;;;;5025268;28;20018;-67
2022/01/04 00:15:45;;;;;;;5.25;1.70;;;8.10;99.90;;;;;;5027572;28;20432;-67
2022/01/04 00:18:12;;;;;;;5.65;2.17;;;8.00;99.90;;;;;;5023801;28;20018;-67
2022/01/04 00:20:38;;;;;;;4.35;2.03;;;8.00;99.90;;;;;;5030944;28;20029;-67
2022/01/04 00:23:04;;;;;;;11.63;2.42;;;8.10;99.90;;;;;;5027825;28;20760;-67
2022/01/04 00:25:29;;;;;;;6.10;1.95;;;8.00;99.90;;;;;;5030513;28;20071;-67
2022/01/04 00:27:56;;;;;;;5.13;2.08;;;8.00;99.90;;;;;;5025881;28;20103;-67
2022/01/04 00:30:24;;;;;;;5.70;1.75;;;8.00;99.90;;;;;;5030057;28;20068;-66
2022/01/04 00:32:49;;;;;;;5.97;2.22;;;8.00;99.90;;;;;;5025783;28;20509;-66
2022/01/04 00:35:15;;;;;;;11.65;2.53;;;8.00;99.90;;;;;;5019635;28;20030;-66
2022/01/04 00:37:40;;;;;;;6.90;2.05;;;7.90;99.90;;;;;;5030449;28;20057;-67
2022/01/04 00:40:06;;;;;;;6.15;2.20;;;7.90;99.90;;;;;;5024468;28;20034;-67
2022/01/04 00:42:32;;;;;;;3.95;1.80;;;7.90;99.90;;;;;;5025136;28;20075;-67
2022/01/04 00:44:58;;;;;;;5.70;1.50;;;7.90;99.90;;;;;;5026359;28;20022;-67
2022/01/04 00:47:37;;;;;;;1.80;1.15;;;7.90;99.90;;;;;;5027240;28;20511;-67
2022/01/04 00:50:04;;;;;;;5.35;1.98;;;7.90;99.90;;;;;;5021842;28;20029;-67
2022/01/04 00:52:29;;;;;;;4.65;1.50;;;7.90;99.90;;;;;;5031195;28;20531;-67
2022/01/04 00:54:55;;;;;;;3.78;1.88;;;7.90;99.90;;;;;;5028755;28;20026;-67
2022/01/04 00:57:21;;;;;;;6.63;2.50;;;7.90;99.90;;;;;;5032085;28;20022;-67
2022/01/04 00:59:46;;;;;;;3.60;1.42;;;7.80;99.90;;;;;;5028130;28;20036;-67
2022/01/04 01:02:12;;;;;;;3.05;2.20;;;7.80;99.90;;;;;;5030079;28;20028;-67
2022/01/04 01:04:37;;;;;;;4.05;1.33;;;7.80;99.90;;;;;;5028810;28;20067;-67
2022/01/04 01:07:03;;;;;;;2.70;1.30;;;7.80;99.90;;;;;;5026542;28;20764;-67
2022/01/04 01:09:33;;;;;;;3.78;1.77;;;7.80;99.90;;;;;;5028440;28;20101;-67
2022/01/04 01:11:59;;;;;;;16.08;2.47;;;7.70;99.90;;;;;;5018682;28;20052;-67
2022/01/04 01:14:24;;;;;;;9.55;1.75;;;7.70;99.90;;;;;;5031185;28;20041;-67
2022/01/04 01:16:50;;;;;;;3.20;1.80;;;7.70;99.90;;;;;;5028857;28;20025;-67
2022/01/04 01:19:16;;;;;;;1.98;1.20;;;7.70;99.90;;;;;;5013821;28;20062;-67
2022/01/04 01:21:41;;;;;;;3.95;1.63;;;7.70;99.90;;;;;;5027387;28;20021;-67
2022/01/04 01:24:07;;;;;;;8.23;2.17;;;7.70;99.90;;;;;;5033549;28;20033;-67
2022/01/04 01:26:33;;;;;;;6.05;2.00;;;7.70;99.90;;;;;;5026017;28;20151;-67
2022/01/04 01:28:58;;;;;;;4.55;1.73;;;7.70;99.90;;;;;;5029515;28;20026;-67
2022/01/04 01:31:24;;;;;;;2.95;1.30;;;7.70;99.90;;;;;;5025608;28;20428;-67
2022/01/04 01:33:50;;;;;;;5.93;1.67;;;7.70;99.90;;;;;;5025162;28;20029;-67
2022/01/04 01:36:16;;;;;;;5.70;2.20;;;7.70;99.90;;;;;;5032211;28;20021;-67
2022/01/04 01:38:41;;;;;;;4.30;1.52;;;7.70;99.90;;;;;;5036625;28;20031;-67
2022/01/04 01:41:07;;;;;;;3.30;1.65;;;7.60;99.90;;;;;;5027603;28;20060;-67
2022/01/04 01:43:32;;;;;;;9.63;1.98;;;7.60;99.90;;;;;;5027058;28;20022;-67
2022/01/04 01:45:58;;;;;;;2.25;1.30;;;7.50;99.90;;;;;;5026306;28;20033;-67
2022/01/04 01:48:24;;;;;;;3.55;1.08;;;7.60;99.90;;;;;;5031039;28;20017;-67
2022/01/04 01:50:50;;;;;;;4.72;1.95;;;7.60;99.90;;;;;;5031631;28;20111;-67
2022/01/04 01:53:16;;;;;;;5.03;1.33;;;7.50;99.90;;;;;;5025572;28;20401;-67
2022/01/04 01:55:42;;;;;;;2.80;1.30;;;7.50;99.90;;;;;;5025397;28;20022;-67
2022/01/04 01:58:08;;;;;;;8.55;2.22;;;7.50;99.90;;;;;;5029553;28;20024;-67
2022/01/04 02:00:34;;;;;;;1.60;1.17;;;7.50;99.90;;;;;;5022627;28;20021;-67
2022/01/04 02:03:02;;;;;;;0.93;0.80;;;7.50;99.90;;;;;;5029959;28;20474;-67
2022/01/04 02:05:28;;;;;;;3.22;1.52;;;7.40;99.90;;;;;;5032606;28;20045;-67
2022/01/04 02:07:54;;;;;;;2.03;1.20;;;7.40;99.90;;;;;;5030406;28;20068;-67
2022/01/04 02:10:20;;;;;;;2.92;1.27;;;7.40;99.90;;;;;;5025098;28;20025;-67
2022/01/04 02:12:47;;;;;;;3.88;1.48;;;7.40;99.90;;;;;;5027062;28;20029;-67
2022/01/04 02:15:18;;;;;;;2.47;1.08;;;7.40;99.90;;;;;;5034731;28;20029;-67
2022/01/04 02:17:44;;;;;;;1.83;1.00;;;7.40;99.90;;;;;;5031638;28;20132;-67
2022/01/04 02:20:11;;;;;;;2.97;1.40;;;7.40;99.90;;;;;;5034955;28;20108;-67
2022/01/04 02:22:37;;;;;;;2.53;1.38;;;7.30;99.90;;;;;;5027217;28;20056;-67
2022/01/04 02:25:04;;;;;;;2.03;1.10;;;7.30;99.90;;;;;;5032224;28;20049;-67
2022/01/04 02:27:33;;;;;;;7.97;2.80;;;7.30;99.90;;;;;;5026604;28;20021;-67
2022/01/04 02:29:58;;;;;;;3.40;2.15;;;7.40;99.90;;;;;;5028502;28;20048;-67
2022/01/04 02:32:24;;;;;;;2.42;1.20;;;7.40;99.90;;;;;;5036975;28;20524;-67
2022/01/04 02:34:51;;;;;;;5.28;1.92;;;7.40;99.90;;;;;;5033281;28;20025;-67
2022/01/04 02:37:25;;;;;;;4.15;1.63;;;7.40;99.90;;;;;;5038221;28;20020;-67
2022/01/04 02:39:51;;;;;;;8.02;2.58;;;7.30;99.90;;;;;;5035646;28;20035;-67
2022/01/04 02:42:17;;;;;;;2.58;1.25;;;7.30;99.90;;;;;;5037496;28;20056;-67
2022/01/04 02:44:43;;;;;;;6.20;2.53;;;7.30;99.90;;;;;;5040692;28;20068;-67
2022/01/04 02:47:10;;;;;;;4.20;2.55;;;7.30;99.90;;;;;;5035318;28;20413;-67
2022/01/04 02:49:36;;;;;;;4.15;1.75;;;7.20;99.90;;;;;;5039135;28;20490;-67
2022/01/04 02:52:02;;;;;;;5.18;2.40;;;7.40;99.90;;;;;;5039657;28;20018;-67
2022/01/04 02:54:28;;;;;;;3.90;1.45;;;7.30;99.90;;;;;;5039355;28;20373;-67
2022/01/04 02:56:53;;;;;;;8.38;2.90;;;7.30;99.90;;;;;;5036397;28;20025;-67
2022/01/04 02:59:19;;;;;;;6.40;1.85;;;7.20;99.90;;;;;;5039946;28;20024;-67
2022/01/04 03:01:44;;;;;;;7.90;2.05;;;7.20;99.90;;;;;;5041159;28;20029;-67
2022/01/04 03:04:10;;;;;;;4.68;2.50;;;7.20;99.90;;;;;;5038003;28;20025;-67
2022/01/04 03:06:37;;;;;;;7.38;2.28;;;7.20;99.90;;;;;;5035482;28;20115;-67
2022/01/04 03:09:07;;;;;;;6.78;2.38;;;7.20;99.90;;;;;;5035048;28;20439;-67
2022/01/04 03:11:33;;;;;;;5.95;2.38;;;7.20;99.90;;;;;;5037861;28;20056;-67
2022/01/04 03:14:01;;;;;;;8.20;2.65;;;7.20;99.90;;;;;;5037454;28;20104;-67
2022/01/04 03:16:27;;;;;;;4.68;1.73;;;7.10;99.90;;;;;;5033856;28;20060;-67
2022/01/04 03:21:21;;;;;;;6.40;2.20;;;7.20;99.90;;;;;;5037030;28;20025;-67
2022/01/04 03:23:47;;;;;;;12.88;3.20;;;7.20;99.90;;;;;;5038917;28;20023;-67
2022/01/04 03:26:13;;;;;;;11.38;2.92;;;7.20;99.90;;;;;;5032989;28;20477;-67
2022/01/04 03:28:40;;;;;;;6.20;2.75;;;7.20;99.90;;;;;;5030825;28;20113;-67
2022/01/04 03:31:07;;;;;;;7.50;2.80;;;7.20;99.90;;;;;;5040948;28;20523;-67
2022/01/04 03:33:35;;;;;;;5.35;2.47;;;7.20;99.90;;;;;;5036606;28;20029;-67
2022/01/04 03:36:02;;;;;;;9.40;2.72;;;7.30;99.90;;;;;;5037103;28;20029;-67
2022/01/04 03:38:28;;;;;;;3.80;1.55;;;7.20;99.90;;;;;;5035077;28;20075;-67
2022/01/04 03:40:54;;;;;;;3.45;1.40;;;7.20;99.90;;;;;;5034156;28;20022;-67
2022/01/04 03:43:21;;;;;;;5.25;1.70;;;7.20;99.90;;;;;;5035955;28;20021;-67
2022/01/04 03:45:47;;;;;;;4.82;2.05;;;7.30;99.90;;;;;;5034070;28;20025;-67
2022/01/04 03:48:13;;;;;;;3.63;1.63;;;7.20;99.90;;;;;;5035645;28;20103;-67
2022/01/04 03:50:40;;;;;;;3.78;1.73;;;7.20;99.90;;;;;;5035663;28;20481;-67
2022/01/04 03:53:05;;;;;;;4.03;2.00;;;7.20;99.90;;;;;;5036141;28;20033;-67
2022/01/04 03:55:31;;;;;;;3.47;1.83;;;7.30;99.90;;;;;;5038188;28;20037;-67
2022/01/04 03:57:57;;;;;;;2.15;1.05;;;7.20;99.90;;;;;;5036877;28;20084;-67
2022/01/04 04:00:22;;;;;;;5.18;2.22;;;7.80;99.90;;;;;;5041084;28;20029;-67
2022/01/04 04:02:48;;;;;;;4.30;1.38;;;7.20;99.90;;;;;;5037815;28;20522;-67
2022/01/04 04:05:15;;;;;;;2.78;1.40;;;7.20;99.90;;;;;;5035527;28;20086;-67
2022/01/04 04:07:41;;;;;;;4.72;1.65;;;7.10;99.90;;;;;;5035908;28;20021;-67
2022/01/04 04:10:08;;;;;;;4.75;2.05;;;7.20;99.90;;;;;;5039067;28;20520;-67
2022/01/04 04:12:33;;;;;;;4.13;1.65;;;7.20;99.90;;;;;;5034847;28;20014;-67
2022/01/04 04:15:03;;;;;;;6.80;2.28;;;7.10;99.90;;;;;;5036815;28;20051;-67
2022/01/04 04:17:32;;;;;;;6.57;2.25;;;7.20;99.90;;;;;;5035632;28;20030;-66
2022/01/04 04:19:58;;;;;;;6.07;2.35;;;7.20;99.90;;;;;;5028612;28;20704;-66
2022/01/04 04:22:23;;;;;;;3.25;1.70;;;7.20;99.90;;;;;;5039844;28;20017;-67
2022/01/04 04:24:49;;;;;;;12.35;2.75;;;7.30;99.90;;;;;;5039521;28;20449;-67
2022/01/04 04:27:15;;;;;;;4.40;2.03;;;7.10;99.90;;;;;;5036893;28;20034;-67
2022/01/04 04:29:40;;;;;;;7.97;1.98;;;7.20;99.90;;;;;;5038617;28;20075;-67
2022/01/04 04:32:07;;;;;;;4.43;2.05;;;7.40;99.90;;;;;;5036491;28;20025;-67
2022/01/04 04:34:33;;;;;;;2.72;1.55;;;7.20;99.90;;;;;;5036085;28;20080;-67
2022/01/04 04:36:59;;;;;;;6.13;2.03;;;7.20;99.90;;;;;;5040356;28;20507;-67
2022/01/04 04:39:24;;;;;;;5.10;2.03;;;7.20;99.90;;;;;;5036872;28;20393;-67
2022/01/04 04:41:50;;;;;;;5.97;1.55;;;7.20;99.90;;;;;;5035114;28;20092;-67
2022/01/04 04:44:16;;;;;;;5.25;1.95;;;7.20;99.90;;;;;;5038426;28;20026;-67
2022/01/04 04:46:42;;;;;;;6.97;2.05;;;7.20;99.90;;;;;;5034773;28;20474;-67
2022/01/04 04:49:07;;;;;;;4.30;1.88;;;7.20;99.90;;;;;;5033507;28;20060;-67
2022/01/04 04:51:33;;;;;;;4.60;1.92;;;7.20;99.90;;;;;;5035804;28;20083;-67
2022/01/04 04:53:59;;;;;;;8.45;2.08;;;7.20;99.90;;;;;;5037440;28;20520;-67
2022/01/04 04:56:24;;;;;;;5.50;2.05;;;7.20;99.90;;;;;;5044023;28;20064;-67
2022/01/04 04:58:50;;;;;;;4.25;1.45;;;7.20;99.90;;;;;;5037713;28;20535;-68
2022/01/04 05:01:16;;;;;;;4.28;1.63;;;7.20;99.90;;;;;;5040776;28;20075;-67
2022/01/04 05:03:41;;;;;;;7.47;2.00;;;7.20;99.90;;;;;;5038654;28;20549;-67
2022/01/04 05:06:07;;;;;;;3.42;1.83;;;7.20;99.90;;;;;;5042184;28;20029;-68
2022/01/04 05:08:33;;;;;;;3.70;1.80;;;6.40;99.90;;;;;;5043907;28;20067;-67
2022/01/04 05:10:58;;;;;;;3.35;1.55;;;7.10;99.90;;;;;;5037815;28;20436;-67
2022/01/04 05:13:24;;;;;;;2.42;1.38;;;7.20;99.90;;;;;;5032566;28;20033;-67
2022/01/04 05:15:50;;;;;;;3.80;1.52;;;7.20;99.90;;;;;;5035896;28;20117;-67
2022/01/04 05:18:15;;;;;;;4.47;2.28;;;7.10;99.90;;;;;;5028566;28;20022;-67
2022/01/04 05:20:41;;;;;;;9.00;1.60;;;7.10;99.90;;;;;;5035588;28;20448;-67
2022/01/04 05:23:07;;;;;;;3.53;1.63;;;7.20;99.90;;;;;;5036315;28;20017;-67
2022/01/04 05:25:33;;;;;;;4.68;1.95;;;7.20;99.90;;;;;;5035978;28;20037;-67
2022/01/04 05:27:58;;;;;;;3.50;1.50;;;7.10;99.90;;;;;;5035558;28;20183;-67
2022/01/04 05:30:24;;;;;;;3.20;1.52;;;7.10;99.90;;;;;;5037581;28;20046;-67
2022/01/04 05:32:49;;;;;;;3.25;1.42;;;7.00;99.90;;;;;;5035315;28;20123;-67
2022/01/04 05:35:15;;;;;;;4.97;1.77;;;6.90;99.90;;;;;;5034544;28;20582;-67
2022/01/04 05:37:41;;;;;;;1.92;1.00;;;7.00;99.90;;;;;;5033708;28;20053;-68
2022/01/04 05:40:07;;;;;;;1.90;1.23;;;7.10;99.90;;;;;;5038121;28;20021;-67
2022/01/04 05:42:33;;;;;;;3.05;1.50;;;7.00;99.90;;;;;;5030455;28;20104;-67
2022/01/04 05:44:59;;;;;;;3.70;1.45;;;7.10;99.90;;;;;;5036854;28;20060;-67
2022/01/04 05:47:24;;;;;;;2.22;0.98;;;7.10;99.90;;;;;;5036330;28;20040;-67
2022/01/04 05:49:51;;;;;;;3.45;1.73;;;7.10;99.90;;;;;;5035648;28;20512;-67
2022/01/04 05:52:17;;;;;;;2.05;1.27;;;7.20;99.90;;;;;;5039110;28;20025;-67
2022/01/04 05:54:43;;;;;;;6.97;2.58;;;7.10;99.90;;;;;;5034729;28;20017;-67
2022/01/04 05:57:09;;;;;;;3.20;1.27;;;7.00;99.90;;;;;;5036555;28;20105;-67
2022/01/04 05:59:35;;;;;;;5.90;1.92;;;7.10;99.90;;;;;;5033185;28;20366;-67
2022/01/04 06:02:01;;;;;;;4.60;2.22;;;7.10;99.90;;;;;;5032958;28;20044;-67
2022/01/04 06:04:26;;;;;;;5.13;1.63;;;7.10;99.90;;;;;;5033172;28;20064;-68
2022/01/04 06:06:54;;;;;;;3.50;1.50;;;7.00;99.90;;;;;;5028849;28;20028;-67
2022/01/04 06:09:25;;;;;;;2.70;1.25;;;7.10;99.90;;;;;;5030208;28;20094;-67
2022/01/04 06:17:02;;;;;;;6.40;2.60;;;7.10;99.90;;;;;;5036208;28;20037;-67
2022/01/04 06:19:28;;;;;;;5.20;1.50;;;7.10;99.90;;;;;;5041621;28;20549;-67
2022/01/04 06:21:53;;;;;;;2.88;1.00;;;7.00;99.90;;;;;;5034436;28;20018;-67
2022/01/04 06:24:19;;;;;;;4.50;2.15;;;7.10;99.90;;;;;;5037132;28;20021;-67
2022/01/04 06:26:44;;;;;;;4.85;2.15;;;7.00;99.90;;;;;;5041690;28;20025;-67
2022/01/04 06:29:11;;;;;;;3.22;1.95;;;6.90;99.90;;;;;;5040976;28;20072;-67
2022/01/04 06:31:39;;;;;;;8.48;2.85;;;6.90;99.90;;;;;;5040765;28;20075;-67
2022/01/04 06:34:05;;;;;;;4.28;1.55;;;7.00;99.90;;;;;;5042308;28;20028;-67
2022/01/04 06:36:30;;;;;;;3.95;2.60;;;6.90;99.90;;;;;;5043802;28;20029;-67
2022/01/04 06:38:56;;;;;;;5.53;2.50;;;6.90;99.90;;;;;;5040359;28;20024;-67
2022/01/04 06:41:21;;;;;;;5.95;2.10;;;6.90;99.90;;;;;;5036249;28;20029;-69
2022/01/04 06:43:47;;;;;;;4.68;2.60;;;6.80;99.90;;;;;;5037244;28;20557;-67
2022/01/04 06:46:13;;;;;;;2.67;1.52;;;6.90;99.90;;;;;;5033131;28;20477;-67
2022/01/04 06:48:40;;;;;;;4.80;2.42;;;6.80;99.90;;;;;;5037003;28;20087;-67
2022/01/04 06:51:06;;;;;;;4.80;1.88;;;6.70;99.90;;;;;;5040017;28;20025;-67
2022/01/04 06:53:32;;;;;;;3.55;1.88;;;6.80;99.90;;;;;;5035423;28;20680;-68
2022/01/04 06:55:58;;;;;;;7.15;2.17;;;6.80;99.90;;;;;;5033041;28;20025;-67
2022/01/04 06:58:23;;;;;;;5.53;2.72;;;6.90;99.90;;;;;;5030030;28;20549;-69
2022/01/04 07:00:49;;;;;;;4.53;1.73;;;6.80;99.90;;;;;;5032474;28;20021;-67
2022/01/04 07:03:15;;;;;;;6.55;2.40;;;6.80;99.90;;;;;;5037284;28;20041;-67
2022/01/04 07:05:40;;;;;;;2.10;1.40;;;6.80;99.90;;;;;;5031466;28;20044;-68
2022/01/04 07:08:06;;;;;;;5.68;2.22;;;6.80;99.90;;;;;;5034728;28;20152;-68
2022/01/04 07:10:32;;;;;;;8.88;2.67;;;6.80;99.90;;;;;;5036115;28;20477;-68
2022/01/04 07:12:57;;;;;;;6.63;2.78;;;6.80;99.90;;;;;;5042673;28;20029;-67
2022/01/04 07:15:23;;;;;;;6.18;2.67;;;6.90;99.90;;;;;;5034161;28;20017;-68
2022/01/04 07:17:48;;;;;;;6.35;2.38;;;6.90;99.90;;;;;;5036308;28;20112;-68
2022/01/04 07:20:14;;;;;;;5.20;2.35;;;6.80;99.90;;;;;;5031902;28;20045;-68
2022/01/04 07:22:40;;;;;;;5.05;1.90;;;6.90;99.90;;;;;;5034312;28;20029;-68
2022/01/04 07:25:06;;;;;;;9.80;2.58;;;6.90;99.90;;;;;;5035513;28;20041;-68
2022/01/04 07:27:32;;;;;;;11.05;3.38;;;6.90;99.90;;;;;;5032035;28;20075;-68
2022/01/04 07:29:59;;;;;;;2.88;1.67;;;6.80;99.90;;;;;;5037957;28;20044;-68
2022/01/04 07:32:25;;;;;;;8.63;3.25;;;7.00;99.90;;;;;;5038969;28;20109;-68
2022/01/04 07:34:57;;;;;;;5.53;2.60;;;6.80;99.90;;;;;;5041616;28;20115;-68
2022/01/04 07:37:23;;;;;;;4.30;1.98;;;7.00;99.90;;;;;;5031819;28;20087;-68
2022/01/04 07:39:50;;;;;;;7.60;2.97;;;6.90;99.90;;;;;;5035872;28;20097;-68
2022/01/04 07:42:15;;;;;;;8.57;3.13;;;7.00;99.90;;;;;;5038046;28;20027;-67
2022/01/04 07:44:41;;;;;;;9.57;2.65;;;7.00;99.90;;;;;;5035237;28;20029;-68
2022/01/04 07:47:07;;;;;;;8.25;2.53;;;7.10;99.90;;;;;;5034084;28;20681;-68
2022/01/04 07:49:32;;;;;;;5.68;3.00;;;7.10;99.90;;;;;;5029378;28;20036;-68
2022/01/04 07:51:58;;;;;;;5.07;2.22;;;7.20;99.90;;;;;;5034157;28;20108;-68
2022/01/04 07:54:24;;;;;;;6.85;2.78;;;7.00;99.90;;;;;;5029061;28;20105;-68
2022/01/04 07:56:51;;;;;;;6.32;2.42;;;7.10;99.90;;;;;;5028729;28;20056;-68
2022/01/04 07:59:17;;;;;;;10.77;4.40;;;7.00;99.90;;;;;;5034590;28;20018;-68
2022/01/04 08:01:42;;;;;;;3.25;1.92;;;7.10;99.90;;;;;;5037248;28;20032;-68
2022/01/04 08:04:08;;;;;;;8.57;2.28;;;7.10;99.90;;;;;;5035608;28;20021;-68
2022/01/04 08:06:34;;;;;;;9.32;3.85;;;7.10;99.90;;;;;;5026696;28;20111;-68
2022/01/04 08:08:59;;;;;;;4.47;2.38;;;7.10;99.90;;;;;;5030436;28;20685;-68
2022/01/04 08:11:26;;;;;;;11.23;3.78;;;7.00;99.90;;;;;;5033776;28;20049;-68
2022/01/04 08:13:52;;;;;;;10.52;3.75;;;7.00;99.90;;;;;;5034763;28;20124;-68
2022/01/04 08:16:18;;;;;;;7.82;2.55;;;7.00;99.90;;;;;;5024218;28;20149;-68
2022/01/04 08:18:44;;;;;;;6.90;3.42;;;7.10;99.90;;;;;;5031222;28;20022;-68
2022/01/04 08:21:10;;;;;;;7.05;2.83;;;7.10;99.90;;;;;;5029413;28;20545;-68
2022/01/04 08:23:36;;;;;;;13.60;2.75;;;7.00;99.90;;;;;;5025888;28;20163;-68
2022/01/04 08:26:03;;;;;;;8.45;4.13;;;7.00;99.90;;;;;;5029250;28;20394;-68
2022/01/04 08:28:28;;;;;;;8.30;2.70;;;7.10;99.90;;;;;;5031465;28;20100;-68
2022/01/04 08:30:54;;;;;;;13.30;2.75;;;7.10;99.90;;;;;;5038979;28;20076;-68
2022/01/04 08:33:19;;;;;;;5.72;2.67;;;7.00;99.90;;;;;;5036229;28;20048;-68
2022/01/04 08:35:45;;;;;;;9.68;3.92;;;7.00;99.90;;;;;;5033155;28;20041;-68
2022/01/04 08:38:11;;;;;;;13.10;3.83;;;7.10;99.90;;;;;;5040020;28;20061;-68
2022/01/04 08:40:37;;;;;;;8.25;3.05;;;7.10;99.90;;;;;;5040893;28;20060;-68
2022/01/04 08:43:03;;;;;;;5.80;2.65;;;7.10;99.90;;;;;;5037131;28;20077;-68
2022/01/04 08:45:29;;;;;;;8.07;3.13;;;7.10;99.90;;;;;;5027945;28;20022;-68
2022/01/04 08:47:55;;;;;;;8.48;2.78;;;7.10;99.90;;;;;;5042255;28;20096;-68
2022/01/04 08:50:21;;;;;;;5.95;2.67;;;7.10;99.90;;;;;;5030722;28;20033;-68
2022/01/04 08:52:51;;;;;;;10.60;3.60;;;7.10;99.90;;;;;;5034394;28;20529;-68
2022/01/04 08:55:17;;;;;;;7.80;3.90;;;7.10;99.90;;;;;;5035345;28;20021;-68
2022/01/04 08:57:43;;;;;;;9.35;4.28;;;7.10;99.90;;;;;;5031661;28;20040;-68
2022/01/04 09:00:10;;;;;;;6.38;3.03;;;7.10;99.90;;;;;;5031717;28;20009;-68
2022/01/04 09:02:36;;;;;;;9.02;3.85;;;7.20;99.90;;;;;;5032183;28;20021;-69
2022/01/04 09:05:02;;;;;;;9.23;3.35;;;7.20;99.90;;;;;;5035049;28;20033;-68
2022/01/04 09:07:28;;;;;;;6.00;3.08;;;7.20;99.90;;;;;;5031219;28;20374;-68
2022/01/04 09:09:53;;;;;;;6.13;2.92;;;7.20;99.90;;;;;;5028310;28;20033;-68
2022/01/04 09:12:22;;;;;;;6.03;2.83;;;7.20;99.90;;;;;;5034669;28;20036;-68
2022/01/04 09:14:57;;;;;;;12.63;2.05;;;7.20;99.90;;;;;;5040844;28;20028;-68
2022/01/04 09:20:12;;;;;;;7.15;2.05;;;7.20;99.90;;;;;;5041899;28;20094;-68
2022/01/04 09:22:38;;;;;;;5.78;2.58;;;7.20;99.90;;;;;;5041854;28;20025;-68
2022/01/04 09:25:06;;;;;;;7.18;3.25;;;7.30;99.90;;;;;;5035190;28;20532;-68
2022/01/04 09:27:31;;;;;;;4.20;1.45;;;7.30;99.90;;;;;;5041425;28;20032;-68
2022/01/04 09:29:57;;;;;;;4.63;1.85;;;7.30;99.90;;;;;;5040281;28;20496;-68
2022/01/04 09:32:23;;;;;;;4.90;2.33;;;7.40;99.90;;;;;;5038364;28;20496;-68
2022/01/04 09:34:48;;;;;;;5.22;2.03;;;7.40;99.90;;;;;;5039435;28;20036;-68
2022/01/04 09:37:15;;;;;;;8.23;3.35;;;7.40;99.90;;;;;;5042993;28;20023;-68
2022/01/04 09:39:40;;;;;;;7.70;3.70;;;7.40;99.90;;;;;;5032643;28;20517;-68
2022/01/04 09:42:09;;;;;;;5.95;2.25;;;7.50;99.90;;;;;;5039629;28;20080;-68
2022/01/04 09:44:36;;;;;;;9.73;3.20;;;7.50;99.90;;;;;;5033628;28;20028;-68
2022/01/04 09:47:03;;;;;;;2.40;1.30;;;7.50;99.90;;;;;;5033855;28;20083;-68
2022/01/04 09:49:30;;;;;;;6.35;2.47;;;7.50;99.90;;;;;;5036538;28;20076;-68
2022/01/04 09:51:56;;;;;;;11.05;2.75;;;6.90;99.90;;;;;;5038878;28;20462;-68
2022/01/04 09:54:26;;;;;;;2.60;1.70;;;7.50;99.90;;;;;;5034587;28;20362;-68
2022/01/04 09:56:53;;;;;;;9.73;1.45;;;7.50;99.90;;;;;;5037035;28;20025;-68
2022/01/04 09:59:19;;;;;;;8.90;2.35;;;7.60;99.90;;;;;;5041343;28;20053;-68
2022/01/04 10:01:51;;;;;;;2.83;1.63;;;7.50;99.90;;;;;;5034731;28;20715;-68
2022/01/04 10:04:23;;;;;;;5.45;2.00;;;7.50;99.90;;;;;;5041147;28;20024;-68
2022/01/04 10:06:57;;;;;;;6.07;2.25;;;7.50;99.90;;;;;;5032354;28;20068;-68
2022/01/04 10:09:34;;;;;;;4.28;2.13;;;7.50;99.90;;;;;;5033966;28;20109;-68
2022/01/04 10:12:00;;;;;;;4.95;2.20;;;7.40;99.90;;;;;;5034391;28;20033;-68
2022/01/04 10:14:46;;;;;;;2.55;1.55;;;7.40;99.90;;;;;;5033118;28;20021;-68
2022/01/04 10:17:33;;;;;;;2.15;1.50;;;7.50;99.90;;;;;;5031421;28;20028;-68
2022/01/04 10:20:00;;;;;;;5.38;2.33;;;7.40;99.90;;;;;;5027347;28;20028;-68
2022/01/04 10:22:28;;;;;;;4.40;2.03;;;7.50;99.90;;;;;;5026093;28;20037;-68
2022/01/04 10:25:03;;;;;;;3.60;1.33;;;7.50;99.90;;;;;;5027967;28;20030;-68
2022/01/04 10:27:32;;;;;;;12.55;2.60;;;7.40;99.90;;;;;;5024969;28;20566;-68
2022/01/04 10:30:30;;;;;;;4.07;1.92;;;7.50;99.90;;;;;;5021820;28;20048;-68
2022/01/04 10:33:00;;;;;;;4.05;1.60;;;7.50;99.90;;;;;;5036173;28;20052;-68
2022/01/04 10:35:42;;;;;;;3.83;1.70;;;7.50;99.90;;;;;;5039313;28;20070;-68
2022/01/04 10:38:19;;;;;;;5.72;2.67;;;7.50;99.90;;;;;;5030110;28;20029;-68
2022/01/04 10:41:05;;;;;;;5.15;2.25;;;7.40;99.90;;;;;;5031279;28;20402;-68
2022/01/04 10:43:40;;;;;;;2.40;1.30;;;7.50;99.90;;;;;;5033882;28;20043;-68
2022/01/04 10:46:06;;;;;;;2.95;1.65;;;7.60;99.90;;;;;;5035410;28;20017;-68
2022/01/04 10:48:36;;;;;;;5.05;1.77;;;7.50;99.90;;;;;;5034305;28;20017;-68
2022/01/04 10:51:09;;;;;;;2.25;1.38;;;7.50;99.90;;;;;;5033748;28;20043;-68
2022/01/04 10:53:41;;;;;;;3.95;2.08;;;7.50;99.90;;;;;;5028814;28;20040;-68
2022/01/04 10:56:24;;;;;;;3.70;1.52;;;7.60;99.90;;;;;;5035648;28;20025;-68
2022/01/04 10:58:51;;;;;;;7.00;1.58;;;7.50;99.90;;;;;;5035701;28;20029;-68
2022/01/04 11:01:22;;;;;;;5.88;2.08;;;7.50;99.90;;;;;;5029628;28;20080;-68
2022/01/04 11:03:57;;;;;;;8.05;1.65;;;7.60;99.90;;;;;;5021596;28;20440;-68
2022/01/04 11:06:37;;;;;;;3.90;1.88;;;7.60;99.90;;;;;;5034362;28;20083;-69
2022/01/04 11:09:04;;;;;;;3.20;1.45;;;7.50;99.90;;;;;;5023318;28;20067;-69
2022/01/04 11:11:30;;;;;;;4.72;2.17;;;7.90;99.90;;;;;;5026791;28;20025;-68
2022/01/04 11:13:56;;;;;;;5.50;1.48;;;7.50;99.90;;;;;;5021502;28;20136;-68
2022/01/04 11:16:23;;;;;;;3.65;1.27;;;7.50;99.90;;;;;;5027821;28;20469;-68
2022/01/04 11:18:52;;;;;;;4.22;1.73;;;7.50;99.90;;;;;;5032910;28;20028;-68
2022/01/04 11:21:31;;;;;;;7.10;2.35;;;7.60;99.90;;;;;;5020771;28;20028;-68
2022/01/04 11:23:57;;;;;;;5.10;1.85;;;7.60;99.90;;;;;;5026275;28;20051;-68
2022/01/04 11:26:23;;;;;;;6.65;2.15;;;7.60;99.90;;;;;;5022911;28;20096;-68
2022/01/04 11:28:50;;;;;;;18.67;2.15;;;7.60;99.90;;;;;;5025428;28;20021;-68
2022/01/04 11:31:22;;;;;;;6.75;1.40;;;7.60;99.90;;;;;;5026109;28;20835;-68
2022/01/04 11:34:15;;;;;;;9.98;2.38;;;7.60;99.90;;;;;;5026499;28;20072;-68
2022/01/04 11:36:46;;;;;;;7.60;2.72;;;7.60;99.90;;;;;;5028118;28;20037;-68
2022/01/04 11:39:35;;;;;;;1.75;1.30;;;7.60;99.90;;;;;;5024880;28;20041;-68
2022/01/04 11:42:07;;;;;;;3.20;1.42;;;7.70;99.90;;;;;;5021376;28;20425;-68
2022/01/04 11:44:35;;;;;;;8.43;2.67;;;7.70;99.90;;;;;;5020129;28;20041;-68
2022/01/04 11:47:17;;;;;;;8.43;2.28;;;7.70;99.90;;;;;;5026857;28;20443;-68
2022/01/04 11:50:03;;;;;;;6.40;2.85;;;7.70;99.90;;;;;;5023110;28;20036;-68
2022/01/04 11:52:41;;;;;;;10.68;2.15;;;7.60;99.90;;;;;;5021186;28;20079;-68
2022/01/04 11:55:22;;;;;;;7.40;3.20;;;7.70;99.90;;;;;;5017778;28;20095;-68
2022/01/04 11:58:17;;;;;;;3.70;2.08;;;7.70;99.90;;;;;;5028235;28;20140;-68
2022/01/04 12:01:03;;;;;;;1.95;1.00;;;7.70;99.90;;;;;;5032014;28;20078;-68
2022/01/04 12:03:49;;;;;;;3.00;1.80;;;7.70;99.90;;;;;;5027343;28;20477;-68
2022/01/04 12:06:17;;;;;;;10.60;3.63;;;7.70;99.90;;;;;;5030562;28;20513;-68
2022/01/04 12:08:50;;;;;;;5.57;1.95;;;7.70;99.90;;;;;;5037564;28;20021;-68
2022/01/04 12:11:22;;;;;;;8.38;3.40;;;7.70;99.90;;;;;;5031207;28;20029;-69
2022/01/04 12:13:59;;;;;;;5.47;1.75;;;7.70;99.90;;;;;;5026173;28;20773;-68
2022/01/04 12:16:35;;;;;;;5.22;2.35;;;7.70;99.90;;;;;;5029412;28;20025;-68
2022/01/04 12:19:03;;;;;;;3.47;2.05;;;7.70;99.90;;;;;;5022704;28;20117;-68
2022/01/04 12:21:31;;;;;;;6.97;2.70;;;7.80;99.90;;;;;;5037886;28;20549;-68
2022/01/04 12:23:58;;;;;;;6.25;2.13;;;7.80;99.90;;;;;;5038243;28;20013;-68
2022/01/04 12:26:26;;;;;;;6.55;2.88;;;7.80;99.90;;;;;;5036401;28;20032;-68
2022/01/04 12:28:55;;;;;;;9.15;3.15;;;7.80;99.90;;;;;;5030294;28;20032;-69
2022/01/04 12:31:23;;;;;;;8.77;3.83;;;7.90;99.90;;;;;;5034933;28;20518;-68
2022/01/04 12:33:57;;;;;;;8.23;3.42;;;7.90;99.90;;;;;;5036880;28;20028;-68
2022/01/04 12:36:41;;;;;;;7.93;3.03;;;7.90;99.90;;;;;;5030267;28;20049;-69
2022/01/04 12:39:12;;;;;;;13.52;3.38;;;7.80;99.90;;;;;;5039911;28;20017;-68
2022/01/04 12:41:40;;;;;;;8.32;3.33;;;7.80;99.90;;;;;;5024435;28;20123;-68
2022/01/04 12:44:07;;;;;;;7.82;3.28;;;7.90;99.90;;;;;;5030029;28;20982;-68
2022/01/04 12:46:36;;;;;;;6.22;3.17;;;7.90;99.90;;;;;;5031561;28;20021;-68
2022/01/04 12:49:14;;;;;;;5.45;2.60;;;7.90;99.90;;;;;;5028316;28;20120;-68
2022/01/04 12:51:47;;;;;;;9.50;3.35;;;7.90;99.90;;;;;;5026533;28;20041;-68
2022/01/04 12:54:22;;;;;;;8.27;2.42;;;7.80;99.90;;;;;;5025038;28;20120;-68
2022/01/04 12:56:51;;;;;;;6.07;2.35;;;7.80;99.90;;;;;;5028336;28;20439;-67
2022/01/04 12:59:22;;;;;;;7.05;2.92;;;7.80;99.90;;;;;;5021366;28;20017;-67
2022/01/04 13:01:50;;;;;;;5.90;2.85;;;7.80;99.90;;;;;;5025925;28;20025;-67
2022/01/04 13:04:22;;;;;;;6.10;2.22;;;7.80;99.90;;;;;;5031274;28;20095;-67
2022/01/04 13:06:48;;;;;;;5.68;2.67;;;7.80;99.90;;;;;;5025695;28;20026;-68
2022/01/04 13:09:19;;;;;;;5.20;2.92;;;7.80;99.90;;;;;;5027708;28;20043;-68
2022/01/04 13:11:52;;;;;;;12.63;3.78;;;7.80;99.90;;;;;;5032660;28;20017;-68